createdAt,value
2016-05-08T00:00:18.429Z,16.86
2016-05-08T00:01:18.588Z,16.89
2016-05-08T00:02:18.559Z,16.89
2016-05-08T00:03:18.546Z,16.78
2016-05-08T00:04:18.549Z,16.83
2016-05-08T00:05:18.380Z,16.83
2016-05-08T00:06:18.523Z,16.78
2016-05-08T00:07:18.510Z,16.73
2016-05-08T00:08:18.576Z,16.78
2016-05-08T00:09:18.484Z,16.68
2016-05-08T00:10:18.487Z,16.77
2016-05-08T00:11:18.459Z,16.68
2016-05-08T00:12:18.992Z,16.71
2016-05-08T00:13:18.448Z,16.7
2016-05-08T00:14:18.435Z,16.71
2016-05-08T00:15:18.422Z,16.65
2016-05-08T00:16:18.409Z,16.59
2016-05-08T00:17:18.412Z,16.62
2016-05-08T00:18:18.400Z,16.6
2016-05-08T00:19:18.386Z,16.5
2016-05-08T00:20:18.373Z,16.56
2016-05-08T00:21:18.360Z,16.5
2016-05-08T00:22:18.363Z,16.48
2016-05-08T00:23:18.242Z,16.38
2016-05-08T00:24:18.344Z,16.37
2016-05-08T00:25:18.332Z,16.37
2016-05-08T00:26:18.318Z,16.35
2016-05-08T00:27:18.165Z,16.31
2016-05-08T00:28:18.307Z,16.37
2016-05-08T00:29:18.140Z,16.31
2016-05-08T00:30:18.282Z,16.25
2016-05-08T00:31:18.270Z,16.25
2016-05-08T00:32:18.257Z,16.18
2016-05-08T00:33:18.103Z,16.16
2016-05-08T00:34:18.230Z,16.2
2016-05-08T00:35:18.436Z,16.2
2016-05-08T00:36:18.048Z,16.2
2016-05-08T00:37:18.223Z,16.15
2016-05-08T00:38:18.195Z,16.22
2016-05-08T00:39:18.025Z,16.2
2016-05-08T00:40:18.012Z,16.2
2016-05-08T00:41:18.155Z,16.26
2016-05-08T00:42:18.158Z,16.3
2016-05-08T00:43:18.145Z,16.18
2016-05-08T00:44:18.148Z,16.22
2016-05-08T00:45:17.963Z,16.31
2016-05-08T00:46:17.950Z,16.26
2016-05-08T00:47:18.094Z,16.3
2016-05-08T00:48:18.097Z,16.23
2016-05-08T00:49:18.083Z,16.31
2016-05-08T00:50:18.071Z,16.26
2016-05-08T00:51:18.041Z,16.31
2016-05-08T00:52:18.044Z,16.3
2016-05-08T00:53:17.874Z,16.26
2016-05-08T00:54:18.035Z,16.31
2016-05-08T00:55:18.005Z,16.34
2016-05-08T00:56:18.008Z,16.31
2016-05-08T00:57:17.995Z,16.31
2016-05-08T00:58:17.982Z,16.27
2016-05-08T00:59:17.969Z,16.26
2016-05-08T01:00:17.957Z,16.2
2016-05-08T01:01:17.944Z,16.14
2016-05-08T01:02:17.774Z,16.2
2016-05-08T01:03:17.933Z,16.16
2016-05-08T01:04:17.921Z,16.16
2016-05-08T01:05:17.907Z,16.11
2016-05-08T01:06:17.895Z,16.15
2016-05-08T01:07:17.882Z,16.07
2016-05-08T01:08:17.728Z,16.01
2016-05-08T01:09:17.871Z,16.04
2016-05-08T01:10:17.842Z,15.99
2016-05-08T01:11:17.861Z,16.06
2016-05-08T01:12:17.895Z,16.04
2016-05-08T01:13:17.820Z,16.04
2016-05-08T01:14:17.666Z,16.01
2016-05-08T01:15:17.794Z,15.94
2016-05-08T01:16:17.797Z,15.96
2016-05-08T01:17:17.628Z,15.93
2016-05-08T01:18:17.771Z,15.89
2016-05-08T01:19:17.758Z,15.81
2016-05-08T01:20:17.588Z,15.76
2016-05-08T01:21:17.732Z,15.85
2016-05-08T01:22:17.719Z,15.74
2016-05-08T01:23:17.706Z,15.72
2016-05-08T01:24:17.708Z,15.68
2016-05-08T01:25:17.681Z,15.66
2016-05-08T01:26:17.714Z,15.64
2016-05-08T01:27:17.530Z,15.63
2016-05-08T01:28:17.657Z,15.57
2016-05-08T01:29:17.661Z,15.52
2016-05-08T01:30:17.647Z,15.54
2016-05-08T01:31:17.635Z,15.52
2016-05-08T01:32:17.605Z,15.49
2016-05-08T01:33:17.609Z,15.52
2016-05-08T01:34:17.596Z,15.46
2016-05-08T01:35:17.443Z,15.46
2016-05-08T01:36:17.257Z,15.45
2016-05-08T01:37:17.557Z,15.42
2016-05-08T01:38:17.543Z,15.43
2016-05-08T01:39:17.532Z,15.28
2016-05-08T01:40:17.534Z,15.36
2016-05-08T01:41:17.521Z,15.39
2016-05-08T01:42:17.507Z,15.28
2016-05-08T01:43:17.339Z,15.27
2016-05-08T01:44:17.326Z,15.36
2016-05-08T01:45:17.470Z,15.3
2016-05-08T01:46:17.472Z,15.33
2016-05-08T01:47:17.443Z,15.35
2016-05-08T01:48:17.431Z,15.3
2016-05-08T01:49:17.433Z,15.35
2016-05-08T01:50:17.420Z,15.35
2016-05-08T01:51:17.251Z,15.3
2016-05-08T01:52:17.394Z,15.38
2016-05-08T01:53:17.381Z,15.21
2016-05-08T01:54:17.369Z,15.33
2016-05-08T01:55:17.356Z,15.23
2016-05-08T01:56:17.342Z,15.2
2016-05-08T01:57:17.642Z,15.11
2016-05-08T01:58:17.332Z,15.09
2016-05-08T01:59:17.303Z,15.12
2016-05-08T02:00:17.306Z,15.08
2016-05-08T02:01:17.294Z,15.09
2016-05-08T02:02:17.281Z,15.02
2016-05-08T02:03:17.268Z,14.95
2016-05-08T02:04:17.254Z,14.98
2016-05-08T02:05:17.241Z,14.99
2016-05-08T02:06:17.229Z,14.93
2016-05-08T02:07:17.232Z,14.9
2016-05-08T02:08:17.219Z,14.95
2016-05-08T02:09:17.205Z,14.93
2016-05-08T02:10:17.192Z,14.87
2016-05-08T02:11:17.180Z,14.84
2016-05-08T02:12:17.730Z,14.84
2016-05-08T02:13:17.154Z,14.9
2016-05-08T02:14:16.985Z,14.8
2016-05-08T02:15:17.128Z,14.75
2016-05-08T02:16:17.131Z,14.69
2016-05-08T02:17:17.117Z,14.75
2016-05-08T02:18:17.090Z,14.67
2016-05-08T02:19:16.936Z,14.72
2016-05-08T02:20:16.923Z,14.67
2016-05-08T02:21:17.066Z,14.68
2016-05-08T02:22:17.084Z,14.69
2016-05-08T02:23:17.040Z,14.68
2016-05-08T02:24:17.028Z,14.65
2016-05-08T02:25:17.014Z,14.6
2016-05-08T02:26:17.001Z,14.47
2016-05-08T02:27:17.238Z,14.44
2016-05-08T02:28:16.819Z,14.54
2016-05-08T02:29:16.978Z,14.5
2016-05-08T02:30:16.966Z,14.46
2016-05-08T02:31:16.952Z,14.5
2016-05-08T02:32:16.939Z,14.42
2016-05-08T02:33:16.927Z,14.47
2016-05-08T02:34:16.913Z,14.47
2016-05-08T02:35:17.104Z,14.46
2016-05-08T02:36:16.732Z,14.38
2016-05-08T02:37:16.905Z,14.35
2016-05-08T02:38:16.877Z,14.38
2016-05-08T02:39:16.693Z,14.25
2016-05-08T02:40:16.835Z,14.34
2016-05-08T02:41:16.838Z,14.2
2016-05-08T02:42:17.093Z,14.31
2016-05-08T02:43:16.720Z,14.29
2016-05-08T02:44:16.911Z,14.21
2016-05-08T02:45:16.977Z,14.17
2016-05-08T02:46:16.981Z,14.16
2016-05-08T02:47:17.011Z,14.19
2016-05-08T02:48:17.016Z,14.1
2016-05-08T02:49:17.019Z,14.1
2016-05-08T02:50:16.867Z,14.09
2016-05-08T02:51:17.028Z,14.09
2016-05-08T02:52:17.024Z,14.1
2016-05-08T02:53:17.018Z,14.02
2016-05-08T02:54:17.012Z,14.02
2016-05-08T02:55:17.005Z,13.95
2016-05-08T02:56:17.013Z,13.95
2016-05-08T02:57:16.848Z,13.94
2016-05-08T02:58:16.978Z,13.91
2016-05-08T02:59:16.967Z,13.91
2016-05-08T03:00:16.816Z,13.96
2016-05-08T03:01:16.805Z,14.01
2016-05-08T03:02:16.809Z,13.88
2016-05-08T03:03:16.781Z,13.88
2016-05-08T03:04:16.925Z,13.87
2016-05-08T03:05:16.757Z,13.95
2016-05-08T03:06:16.901Z,13.89
2016-05-08T03:07:16.889Z,13.83
2016-05-08T03:08:16.876Z,13.8
2016-05-08T03:09:16.707Z,13.8
2016-05-08T03:10:16.695Z,13.81
2016-05-08T03:11:16.838Z,13.77
2016-05-08T03:12:17.607Z,13.79
2016-05-08T03:13:16.844Z,13.67
2016-05-08T03:14:16.799Z,13.73
2016-05-08T03:15:16.787Z,13.7
2016-05-08T03:16:16.773Z,13.79
2016-05-08T03:17:16.777Z,13.67
2016-05-08T03:18:16.607Z,13.7
2016-05-08T03:19:16.751Z,13.67
2016-05-08T03:20:16.737Z,13.63
2016-05-08T03:21:16.726Z,13.7
2016-05-08T03:22:16.696Z,13.61
2016-05-08T03:23:16.699Z,13.67
2016-05-08T03:24:16.670Z,13.63
2016-05-08T03:25:16.657Z,13.62
2016-05-08T03:26:16.659Z,13.63
2016-05-08T03:27:16.648Z,13.67
2016-05-08T03:28:16.634Z,13.58
2016-05-08T03:29:16.622Z,13.56
2016-05-08T03:30:16.608Z,13.62
2016-05-08T03:31:16.596Z,13.59
2016-05-08T03:32:16.582Z,13.61
2016-05-08T03:33:16.414Z,13.59
2016-05-08T03:34:16.556Z,13.58
2016-05-08T03:35:16.558Z,13.59
2016-05-08T03:36:16.531Z,13.62
2016-05-08T03:37:16.564Z,13.59
2016-05-08T03:38:16.505Z,13.59
2016-05-08T03:39:16.491Z,13.56
2016-05-08T03:40:16.479Z,13.59
2016-05-08T03:41:16.466Z,13.54
2016-05-08T03:42:16.327Z,13.62
2016-05-08T03:43:16.441Z,13.61
2016-05-08T03:44:16.287Z,13.58
2016-05-08T03:45:16.274Z,13.56
2016-05-08T03:46:16.401Z,13.52
2016-05-08T03:47:16.388Z,13.51
2016-05-08T03:48:16.376Z,13.59
2016-05-08T03:49:16.379Z,13.59
2016-05-08T03:50:16.381Z,13.59
2016-05-08T03:51:16.181Z,13.59
2016-05-08T03:52:16.354Z,13.49
2016-05-08T03:53:16.326Z,13.54
2016-05-08T03:54:16.298Z,13.44
2016-05-08T03:55:15.988Z,13.54
2016-05-08T03:56:16.287Z,13.41
2016-05-08T03:57:16.134Z,13.4
2016-05-08T03:58:16.262Z,13.44
2016-05-08T03:59:16.233Z,13.33
2016-05-08T04:00:16.236Z,13.46
2016-05-08T04:01:16.223Z,13.33
2016-05-08T04:02:16.054Z,13.22
2016-05-08T04:03:16.197Z,13.32
2016-05-08T04:04:16.184Z,13.29
2016-05-08T04:05:16.171Z,13.29
2016-05-08T04:06:16.158Z,13.3
2016-05-08T04:07:16.145Z,13.22
2016-05-08T04:08:16.133Z,13.25
2016-05-08T04:09:16.119Z,13.22
2016-05-08T04:10:16.107Z,13.2
2016-05-08T04:11:15.781Z,13.14
2016-05-08T04:12:16.081Z,13.11
2016-05-08T04:13:16.068Z,13.24
2016-05-08T04:14:16.055Z,13.07
2016-05-08T04:15:16.057Z,13.11
2016-05-08T04:16:16.044Z,13.06
2016-05-08T04:17:16.016Z,13.04
2016-05-08T04:18:15.847Z,13.09
2016-05-08T04:19:16.006Z,13.07
2016-05-08T04:20:15.837Z,13.11
2016-05-08T04:21:15.965Z,13.14
2016-05-08T04:22:15.952Z,13.07
2016-05-08T04:23:15.938Z,13.2
2016-05-08T04:24:15.925Z,13.12
2016-05-08T04:25:15.928Z,13.17
2016-05-08T04:26:15.759Z,13.11
2016-05-08T04:27:15.903Z,13.18
2016-05-08T04:28:15.890Z,13.24
2016-05-08T04:29:15.876Z,13.21
2016-05-08T04:30:15.863Z,13.18
2016-05-08T04:31:15.834Z,13.21
2016-05-08T04:32:15.667Z,13.21
2016-05-08T04:33:15.653Z,13.27
2016-05-08T04:34:15.811Z,13.29
2016-05-08T04:35:15.986Z,13.25
2016-05-08T04:36:15.769Z,13.3
2016-05-08T04:37:15.773Z,13.32
2016-05-08T04:38:15.760Z,13.3
2016-05-08T04:39:15.731Z,13.36
2016-05-08T04:40:15.733Z,13.36
2016-05-08T04:41:15.722Z,13.33
2016-05-08T04:42:15.708Z,13.3
2016-05-08T04:43:15.695Z,13.33
2016-05-08T04:44:15.682Z,13.37
2016-05-08T04:45:15.670Z,13.32
2016-05-08T04:46:15.656Z,13.4
2016-05-08T04:47:15.488Z,13.46
2016-05-08T04:48:15.474Z,13.46
2016-05-08T04:49:15.617Z,13.52
2016-05-08T04:50:15.448Z,13.51
2016-05-08T04:51:15.436Z,13.46
2016-05-08T04:52:15.579Z,13.56
2016-05-08T04:53:15.582Z,13.61
2016-05-08T04:54:15.553Z,13.67
2016-05-08T04:55:15.540Z,13.58
2016-05-08T04:56:15.526Z,13.58
2016-05-08T04:57:15.515Z,13.63
2016-05-08T04:58:15.376Z,13.63
2016-05-08T04:59:15.488Z,13.63
2016-05-08T05:00:15.459Z,13.63
2016-05-08T05:01:15.462Z,13.65
2016-05-08T05:02:15.450Z,13.76
2016-05-08T05:03:15.437Z,13.73
2016-05-08T05:04:15.423Z,13.73
2016-05-08T05:05:15.411Z,13.74
2016-05-08T05:06:15.257Z,13.8
2016-05-08T05:07:15.400Z,13.77
2016-05-08T05:08:15.231Z,13.8
2016-05-08T05:09:15.375Z,13.81
2016-05-08T05:10:15.205Z,13.81
2016-05-08T05:11:15.349Z,13.77
2016-05-08T05:12:15.164Z,13.83
2016-05-08T05:13:15.338Z,13.87
2016-05-08T05:14:15.310Z,13.88
2016-05-08T05:15:15.297Z,13.95
2016-05-08T05:16:15.284Z,13.95
2016-05-08T05:17:15.271Z,14.02
2016-05-08T05:18:15.258Z,13.99
2016-05-08T05:19:15.245Z,13.99
2016-05-08T05:20:15.232Z,14.04
2016-05-08T05:21:15.219Z,14.12
2016-05-08T05:22:15.207Z,14.12
2016-05-08T05:23:15.209Z,14.19
2016-05-08T05:24:15.196Z,14.2
2016-05-08T05:25:15.027Z,14.28
2016-05-08T05:26:15.030Z,14.2
2016-05-08T05:27:15.157Z,14.28
2016-05-08T05:28:15.145Z,14.28
2016-05-08T05:29:14.959Z,14.35
2016-05-08T05:30:15.103Z,14.31
2016-05-08T05:31:15.106Z,14.39
2016-05-08T05:32:15.093Z,14.39
2016-05-08T05:33:14.923Z,14.47
2016-05-08T05:34:14.911Z,14.47
2016-05-08T05:35:14.929Z,14.53
2016-05-08T05:36:15.042Z,14.52
2016-05-08T05:37:14.872Z,14.56
2016-05-08T05:38:15.014Z,14.57
2016-05-08T05:39:15.002Z,14.64
2016-05-08T05:40:15.005Z,14.67
2016-05-08T05:41:14.836Z,14.72
2016-05-08T05:42:14.964Z,14.75
2016-05-08T05:43:14.950Z,14.83
2016-05-08T05:44:14.937Z,14.84
2016-05-08T05:45:14.940Z,14.94
2016-05-08T05:46:14.928Z,15.01
2016-05-08T05:47:14.914Z,15.05
2016-05-08T05:48:14.902Z,15.08
2016-05-08T05:49:14.732Z,15.11
2016-05-08T05:50:14.719Z,15.19
2016-05-08T05:51:14.878Z,15.26
2016-05-08T05:52:14.694Z,15.24
2016-05-08T05:53:14.837Z,15.26
2016-05-08T05:54:14.840Z,15.33
2016-05-08T05:55:14.810Z,15.43
2016-05-08T05:56:14.798Z,15.48
2016-05-08T05:57:14.784Z,15.48
2016-05-08T05:58:14.787Z,15.49
2016-05-08T05:59:14.759Z,15.51
2016-05-08T06:00:14.762Z,15.52
2016-05-08T06:01:14.748Z,15.52
2016-05-08T06:02:14.579Z,15.59
2016-05-08T06:03:14.723Z,15.6
2016-05-08T06:04:14.726Z,15.56
2016-05-08T06:05:14.698Z,15.7
2016-05-08T06:06:14.372Z,15.68
2016-05-08T06:07:14.686Z,15.68
2016-05-08T06:08:14.658Z,15.81
2016-05-08T06:09:14.661Z,15.81
2016-05-08T06:10:14.647Z,15.81
2016-05-08T06:11:14.667Z,15.97
2016-05-08T06:12:14.497Z,15.89
2016-05-08T06:13:14.531Z,15.97
2016-05-08T06:14:14.612Z,16.07
2016-05-08T06:15:14.599Z,16.14
2016-05-08T06:16:14.414Z,16.18
2016-05-08T06:17:14.557Z,16.15
2016-05-08T06:18:14.560Z,16.27
2016-05-08T06:19:14.547Z,16.23
2016-05-08T06:20:14.363Z,16.3
2016-05-08T06:21:14.537Z,16.37
2016-05-08T06:22:14.508Z,16.35
2016-05-08T06:23:14.495Z,16.45
2016-05-08T06:24:14.482Z,16.45
2016-05-08T06:25:14.470Z,16.49
2016-05-08T06:26:14.487Z,16.53
2016-05-08T06:27:14.476Z,16.6
2016-05-08T06:28:14.446Z,16.6
2016-05-08T06:29:14.434Z,16.7
2016-05-08T06:30:14.420Z,16.74
2016-05-08T06:31:14.423Z,16.81
2016-05-08T06:32:14.410Z,16.65
2016-05-08T06:33:14.241Z,16.92
2016-05-08T06:34:14.384Z,16.86
2016-05-08T06:35:14.778Z,16.86
2016-05-08T06:36:14.359Z,16.95
2016-05-08T06:37:14.345Z,16.99
2016-05-08T06:38:14.348Z,17.1
2016-05-08T06:39:14.335Z,17.08
2016-05-08T06:40:14.306Z,17.1
2016-05-08T06:41:14.309Z,17.22
2016-05-08T06:42:14.297Z,17.25
2016-05-08T06:43:14.300Z,17.28
2016-05-08T06:44:14.286Z,17.3
2016-05-08T06:45:14.274Z,17.53
2016-05-08T06:46:14.261Z,17.46
2016-05-08T06:47:14.247Z,17.54
2016-05-08T06:48:14.235Z,17.63
2016-05-08T06:49:14.253Z,17.67
2016-05-08T06:50:14.052Z,17.78
2016-05-08T06:51:14.227Z,17.84
2016-05-08T06:52:14.199Z,17.99
2016-05-08T06:53:14.046Z,17.97
2016-05-08T06:54:14.173Z,18.07
2016-05-08T06:55:14.176Z,18.07
2016-05-08T06:56:14.006Z,18.13
2016-05-08T06:57:14.149Z,18.17
2016-05-08T06:58:14.151Z,18.19
2016-05-08T06:59:14.139Z,18.24
2016-05-08T07:00:14.126Z,18.24
2016-05-08T07:01:14.113Z,18.24
2016-05-08T07:02:14.101Z,18.27
2016-05-08T07:03:14.087Z,18.28
2016-05-08T07:04:14.090Z,18.42
2016-05-08T07:05:14.078Z,18.44
2016-05-08T07:06:14.064Z,18.47
2016-05-08T07:07:13.911Z,18.5
2016-05-08T07:08:14.053Z,18.55
2016-05-08T07:09:14.041Z,18.55
2016-05-08T07:10:14.028Z,18.57
2016-05-08T07:11:14.030Z,18.68
2016-05-08T07:12:14.002Z,18.68
2016-05-08T07:13:14.114Z,18.62
2016-05-08T07:14:13.992Z,18.79
2016-05-08T07:15:13.980Z,18.74
2016-05-08T07:16:13.982Z,18.74
2016-05-08T07:17:13.969Z,18.79
2016-05-08T07:18:13.971Z,18.82
2016-05-08T07:19:13.943Z,18.76
2016-05-08T07:20:13.946Z,18.79
2016-05-08T07:21:13.932Z,18.82
2016-05-08T07:22:13.920Z,18.92
2016-05-08T07:23:13.751Z,18.95
2016-05-08T07:24:13.957Z,18.95
2016-05-08T07:25:13.913Z,18.95
2016-05-08T07:26:13.899Z,19.05
2016-05-08T07:27:13.730Z,19.11
2016-05-08T07:28:14.077Z,19.14
2016-05-08T07:29:13.704Z,19.1
2016-05-08T07:30:13.862Z,19.23
2016-05-08T07:31:13.851Z,19.23
2016-05-08T07:32:13.837Z,19.32
2016-05-08T07:33:13.824Z,19.53
2016-05-08T07:34:13.827Z,19.55
2016-05-08T07:35:13.861Z,19.65
2016-05-08T07:36:13.832Z,19.76
2016-05-08T07:37:13.804Z,19.83
2016-05-08T07:38:13.807Z,19.93
2016-05-08T07:39:13.653Z,19.97
2016-05-08T07:40:13.796Z,20.05
2016-05-08T07:41:13.784Z,20.13
2016-05-08T07:42:13.786Z,20.1
2016-05-08T07:43:13.773Z,20.21
2016-05-08T07:44:13.760Z,20.33
2016-05-08T07:45:13.763Z,20.35
2016-05-08T07:46:13.797Z,20.43
2016-05-08T07:47:13.753Z,20.35
2016-05-08T07:48:13.755Z,20.42
2016-05-08T07:49:13.741Z,20.43
2016-05-08T07:50:13.729Z,20.51
2016-05-08T07:51:13.747Z,20.53
2016-05-08T07:52:13.719Z,20.69
2016-05-08T07:53:13.722Z,20.69
2016-05-08T07:54:13.709Z,20.65
2016-05-08T07:55:13.727Z,20.8
2016-05-08T07:56:13.715Z,20.81
2016-05-08T07:57:13.701Z,20.83
2016-05-08T07:58:13.782Z,20.86
2016-05-08T07:59:13.691Z,20.91
2016-05-08T08:00:13.693Z,20.99
2016-05-08T08:01:13.681Z,21.04
2016-05-08T08:02:13.527Z,21.16
2016-05-08T08:03:13.670Z,21.19
2016-05-08T08:04:13.657Z,21.19
2016-05-08T08:05:13.660Z,21.24
2016-05-08T08:06:13.507Z,21.3
2016-05-08T08:07:13.650Z,21.42
2016-05-08T08:08:13.653Z,21.35
2016-05-08T08:09:13.640Z,21.53
2016-05-08T08:10:13.627Z,21.64
2016-05-08T08:11:13.630Z,21.91
2016-05-08T08:12:13.476Z,23.04
2016-05-08T08:13:14.213Z,24
2016-05-08T08:14:13.606Z,24.54
2016-05-08T08:15:13.625Z,25.28
2016-05-08T08:16:13.612Z,26.09
2016-05-08T08:17:13.599Z,26.77
2016-05-08T08:18:13.602Z,26.99
2016-05-08T08:19:13.605Z,27.19
2016-05-08T08:20:13.591Z,27.76
2016-05-08T08:21:13.438Z,28.32
2016-05-08T08:22:13.441Z,28.53
2016-05-08T08:23:13.599Z,28.47
2016-05-08T08:24:13.602Z,28.81
2016-05-08T08:25:13.589Z,28.46
2016-05-08T08:26:13.591Z,28.65
2016-05-08T08:27:13.610Z,29.07
2016-05-08T08:28:13.597Z,29.15
2016-05-08T08:29:13.600Z,29.37
2016-05-08T08:30:13.602Z,29.44
2016-05-08T08:31:13.590Z,29.93
2016-05-08T08:32:13.593Z,30.33
2016-05-08T08:33:13.595Z,30.46
2016-05-08T08:34:13.301Z,30.34
2016-05-08T08:35:13.600Z,30.86
2016-05-08T08:36:13.806Z,31.06
2016-05-08T08:37:13.606Z,31.21
2016-05-08T08:38:13.609Z,31.53
2016-05-08T08:39:13.611Z,31.55
2016-05-08T08:40:13.614Z,31.31
2016-05-08T08:41:13.617Z,31.31
2016-05-08T08:42:13.464Z,31.15
2016-05-08T08:43:13.669Z,31.3
2016-05-08T08:44:13.624Z,31.36
2016-05-08T08:45:13.627Z,31.6
2016-05-08T08:46:13.630Z,31.98
2016-05-08T08:47:13.633Z,31.99
2016-05-08T08:48:13.666Z,32
2016-05-08T08:49:13.482Z,32.14
2016-05-08T08:50:13.625Z,32.11
2016-05-08T08:51:13.488Z,31.96
2016-05-08T08:52:13.646Z,31.12
2016-05-08T08:53:13.493Z,31.04
2016-05-08T08:54:13.651Z,30.57
2016-05-08T08:55:13.654Z,30.18
2016-05-08T08:56:13.501Z,29.65
2016-05-08T08:57:13.659Z,29.63
2016-05-08T08:58:13.710Z,29.55
2016-05-08T08:59:13.696Z,29.74
2016-05-08T09:00:13.527Z,29.99
2016-05-08T09:01:13.655Z,30.18
2016-05-08T09:02:13.673Z,30.31
2016-05-08T09:03:13.676Z,30.15
2016-05-08T09:04:13.678Z,29.96
2016-05-08T09:05:13.681Z,29.68
2016-05-08T09:06:13.684Z,29.38
2016-05-08T09:07:13.530Z,28.54
2016-05-08T09:08:13.534Z,28.07
2016-05-08T09:09:13.536Z,27.46
2016-05-08T09:10:13.538Z,26.98
2016-05-08T09:11:13.682Z,27.04
2016-05-08T09:12:13.700Z,27.32
2016-05-08T09:13:13.562Z,27.26
2016-05-08T09:14:13.705Z,27.14
2016-05-08T09:15:13.692Z,27.11
2016-05-08T09:16:13.695Z,27.13
2016-05-08T09:17:13.697Z,26.94
2016-05-08T09:18:13.544Z,27.11
2016-05-08T09:19:13.546Z,26.83
2016-05-08T09:20:13.691Z,26.96
2016-05-08T09:21:13.537Z,26.99
2016-05-08T09:22:13.711Z,27.14
2016-05-08T09:23:13.699Z,27.35
2016-05-08T09:24:13.544Z,27.5
2016-05-08T09:25:13.704Z,27.64
2016-05-08T09:26:13.722Z,27.84
2016-05-08T09:27:13.552Z,28.25
2016-05-08T09:28:14.212Z,28.44
2016-05-08T09:29:13.558Z,28.63
2016-05-08T09:30:13.546Z,28.58
2016-05-08T09:31:13.548Z,28.53
2016-05-08T09:32:13.707Z,28.33
2016-05-08T09:33:13.771Z,28.19
2016-05-08T09:34:13.713Z,27.96
2016-05-08T09:35:13.699Z,27.91
2016-05-08T09:36:13.545Z,28.1
2016-05-08T09:37:13.704Z,28.32
2016-05-08T09:38:20.020Z,28.32
2016-05-08T09:39:13.695Z,27.99
2016-05-08T09:40:13.556Z,27.92
2016-05-08T09:41:13.700Z,27.74
2016-05-08T09:42:13.703Z,27.69
2016-05-08T09:43:13.752Z,27.91
2016-05-08T09:44:13.911Z,28.03
2016-05-08T09:45:13.710Z,27.76
2016-05-08T09:46:13.713Z,27.33
2016-05-08T09:47:13.701Z,27.26
2016-05-08T09:48:13.703Z,27.21
2016-05-08T09:49:13.706Z,27.17
2016-05-08T09:50:13.708Z,26.94
2016-05-08T09:51:13.539Z,26.95
2016-05-08T09:52:13.698Z,26.81
2016-05-08T09:53:13.700Z,26.84
2016-05-08T09:54:13.703Z,27.21
2016-05-08T09:55:13.690Z,27.26
2016-05-08T09:56:13.694Z,27.35
2016-05-08T09:57:13.696Z,27.43
2016-05-08T09:58:13.964Z,27.28
2016-05-08T09:59:13.702Z,26.99
2016-05-08T10:00:13.704Z,26.84
2016-05-08T10:01:13.551Z,26.89
2016-05-08T10:02:13.693Z,26.8
2016-05-08T10:03:13.696Z,26.73
2016-05-08T10:04:13.699Z,26.69
2016-05-08T10:05:13.702Z,26.73
2016-05-08T10:06:13.392Z,26.68
2016-05-08T10:07:13.535Z,27.05
2016-05-08T10:08:13.710Z,27.2
2016-05-08T10:09:13.681Z,27.36
2016-05-08T10:10:13.684Z,27.73
2016-05-08T10:11:13.686Z,27.61
2016-05-08T10:12:13.689Z,27.95
2016-05-08T10:13:15.662Z,27.85
2016-05-08T10:14:13.538Z,27.59
2016-05-08T10:15:13.682Z,27.79
2016-05-08T10:16:13.528Z,28.17
2016-05-08T10:17:13.547Z,27.85
2016-05-08T10:18:13.534Z,27.88
2016-05-08T10:19:13.567Z,28.33
2016-05-08T10:20:13.539Z,28.6
2016-05-08T10:21:13.698Z,28.63
2016-05-08T10:22:13.544Z,28.46
2016-05-08T10:23:13.703Z,28.53
2016-05-08T10:24:13.717Z,28.69
2016-05-08T10:25:13.704Z,28.7
2016-05-08T10:26:13.706Z,28.56
2016-05-08T10:27:13.709Z,28.54
2016-05-08T10:28:13.915Z,28.53
2016-05-08T10:29:13.558Z,28.96
2016-05-08T10:30:13.561Z,29.31
2016-05-08T10:31:13.720Z,29.56
2016-05-08T10:32:13.566Z,29.77
2016-05-08T10:33:13.569Z,29.96
2016-05-08T10:34:13.572Z,30
2016-05-08T10:35:13.730Z,30.23
2016-05-08T10:36:13.780Z,30.53
2016-05-08T10:37:13.595Z,30.65
2016-05-08T10:38:13.738Z,30.64
2016-05-08T10:39:13.741Z,30.81
2016-05-08T10:40:13.743Z,31.11
2016-05-08T10:41:13.590Z,31.58
2016-05-08T10:42:13.609Z,31.75
2016-05-08T10:43:13.768Z,31.5
2016-05-08T10:44:13.754Z,31.49
2016-05-08T10:45:13.773Z,31.72
2016-05-08T10:46:13.776Z,31.67
2016-05-08T10:47:13.779Z,31.31
2016-05-08T10:48:13.781Z,31.42
2016-05-08T10:49:13.784Z,31.7
2016-05-08T10:50:13.787Z,31.84
2016-05-08T10:51:13.790Z,31.7
2016-05-08T10:52:13.808Z,31.62
2016-05-08T10:53:13.795Z,30.09
2016-05-08T10:54:13.813Z,29.15
2016-05-08T10:55:13.503Z,29.03
2016-05-08T10:56:13.819Z,29.33
2016-05-08T10:57:13.697Z,29.74
2016-05-08T10:58:13.667Z,29.72
2016-05-08T10:59:13.686Z,29.89
2016-05-08T11:00:13.845Z,30.34
2016-05-08T11:01:13.847Z,30.52
2016-05-08T11:02:13.850Z,30.75
2016-05-08T11:03:13.712Z,30.98
2016-05-08T11:04:13.699Z,31.17
2016-05-08T11:05:13.857Z,31.42
2016-05-08T11:06:13.704Z,31.79
2016-05-08T11:07:13.864Z,31.82
2016-05-08T11:08:13.898Z,31.72
2016-05-08T11:09:13.884Z,31.58
2016-05-08T11:10:13.887Z,31.46
2016-05-08T11:11:13.734Z,31.53
2016-05-08T11:12:13.909Z,31.68
2016-05-08T11:13:13.911Z,31.64
2016-05-08T11:14:13.914Z,31.5
2016-05-08T11:15:13.760Z,31.58
2016-05-08T11:16:13.763Z,31.57
2016-05-08T11:17:13.782Z,31.45
2016-05-08T11:18:13.925Z,31.67
2016-05-08T11:19:13.928Z,31.88
2016-05-08T11:20:13.961Z,32.02
2016-05-08T11:21:13.948Z,31.92
2016-05-08T11:22:13.966Z,32.14
2016-05-08T11:23:13.953Z,32.03
2016-05-08T11:24:13.956Z,31.57
2016-05-08T11:25:13.959Z,31.6
2016-05-08T11:26:13.664Z,31.42
2016-05-08T11:27:13.980Z,31.57
2016-05-08T11:28:13.983Z,31.92
2016-05-08T11:29:14.000Z,32.13
2016-05-08T11:30:13.988Z,31.96
2016-05-08T11:31:13.990Z,32.02
2016-05-08T11:32:14.009Z,31.62
2016-05-08T11:33:14.012Z,31.61
2016-05-08T11:34:13.858Z,31.73
2016-05-08T11:35:14.017Z,31.92
2016-05-08T11:36:14.035Z,31.98
2016-05-08T11:37:13.882Z,32.05
2016-05-08T11:38:14.025Z,31.85
2016-05-08T11:39:14.043Z,31.17
2016-05-08T11:40:14.046Z,31.55
2016-05-08T11:41:13.893Z,31.67
2016-05-08T11:42:14.067Z,31.85
2016-05-08T11:43:13.929Z,31.49
2016-05-08T11:44:13.916Z,31.6
2016-05-08T11:45:14.090Z,31.98
2016-05-08T11:46:13.921Z,32.25
2016-05-08T11:47:13.923Z,32.39
2016-05-08T11:48:13.959Z,32.06
2016-05-08T11:49:14.176Z,31.73
2016-05-08T11:50:14.220Z,32.21
2016-05-08T11:51:14.265Z,32.37
2016-05-08T11:52:14.309Z,32.14
2016-05-08T11:53:14.333Z,32.4
2016-05-08T11:54:14.367Z,32.15
2016-05-08T11:55:14.368Z,32.07
2016-05-08T11:56:14.402Z,32.17
2016-05-08T11:57:14.435Z,31.96
2016-05-08T11:58:14.883Z,32.21
2016-05-08T11:59:14.454Z,32.35
2016-05-08T12:00:14.446Z,32.66
2016-05-08T12:01:14.470Z,32.61
2016-05-08T12:02:14.478Z,32.49
2016-05-08T12:03:14.484Z,32.69
2016-05-08T12:04:14.488Z,32.79
2016-05-08T12:05:14.508Z,33.17
2016-05-08T12:06:14.497Z,32.64
2016-05-08T12:07:14.345Z,32.71
2016-05-08T12:08:14.505Z,32.58
2016-05-08T12:09:14.524Z,32.79
2016-05-08T12:10:14.513Z,32.99
2016-05-08T12:11:14.531Z,33.07
2016-05-08T12:12:14.551Z,32.48
2016-05-08T12:13:14.412Z,32.32
2016-05-08T12:14:14.555Z,32.29
2016-05-08T12:15:14.559Z,32.51
2016-05-08T12:16:14.451Z,32.43
2016-05-08T12:17:14.579Z,32.44
2016-05-08T12:18:14.566Z,32.86
2016-05-08T12:19:14.601Z,32.44
2016-05-08T12:20:14.432Z,32.76
2016-05-08T12:21:14.590Z,32.81
2016-05-08T12:22:14.593Z,32.8
2016-05-08T12:23:14.595Z,32.95
2016-05-08T12:24:14.442Z,33.08
2016-05-08T12:25:14.600Z,32.49
2016-05-08T12:26:14.603Z,32.71
2016-05-08T12:27:14.622Z,32.77
2016-05-08T12:28:14.625Z,32.74
2016-05-08T12:29:14.627Z,32.84
2016-05-08T12:30:14.630Z,32.79
2016-05-08T12:31:14.633Z,32.74
2016-05-08T12:32:14.651Z,32.79
2016-05-08T12:33:14.654Z,32.73
2016-05-08T12:34:14.499Z,32.77
2016-05-08T12:35:14.519Z,32.7
2016-05-08T12:36:14.897Z,32.73
2016-05-08T12:37:14.712Z,32.06
2016-05-08T12:38:14.699Z,32.32
2016-05-08T12:39:14.513Z,32.71
2016-05-08T12:40:14.688Z,32.33
2016-05-08T12:41:14.691Z,32.42
2016-05-08T12:42:14.693Z,32.35
2016-05-08T12:43:14.556Z,32.22
2016-05-08T12:44:14.699Z,32.36
2016-05-08T12:45:14.748Z,32.44
2016-05-08T12:46:14.720Z,32.61
2016-05-08T12:47:14.567Z,32.64
2016-05-08T12:48:14.725Z,32.66
2016-05-08T12:49:14.744Z,32.86
2016-05-08T12:50:14.589Z,32.58
2016-05-08T12:51:14.592Z,32.8
2016-05-08T12:52:14.753Z,32.48
2016-05-08T12:53:14.958Z,32.51
2016-05-08T12:54:14.758Z,32.64
2016-05-08T12:55:14.775Z,32.67